Time;durP1;ratioP1;P1;durP2;ratioP2;P2;SDS_P1;SDS_P2;PMS_P1;PMS_P2;Temp;Humidity;BMP_temperature;BMP_pressure;BME280_temperature;BME280_humidity;BME280_pressure;Samples;Min_cycle;Max_cycle;Signal;HPM_P1;HPM_P2
2023/04/14 00:02:05;;;;;;;6.43;2.60;;;4.30;99.90;;;;;;5077263;28;20040;-61
2023/04/14 00:04:32;;;;;;;7.18;2.83;;;4.40;99.90;;;;;;5077718;28;20054;-61
2023/04/14 00:07:00;;;;;;;10.13;2.58;;;4.40;99.90;;;;;;5077374;28;20062;-62
2023/04/14 00:09:27;;;;;;;7.10;2.72;;;4.40;99.90;;;;;;5077547;28;20131;-63
2023/04/14 00:11:55;;;;;;;8.32;3.13;;;4.50;99.90;;;;;;5077515;28;20044;-62
2023/04/14 00:14:22;;;;;;;8.70;3.00;;;4.50;99.90;;;;;;5077028;28;20449;-62
2023/04/14 00:16:49;;;;;;;12.25;2.83;;;4.40;99.90;;;;;;5095526;28;20048;-62
2023/04/14 00:19:15;;;;;;;10.70;3.13;;;4.40;99.90;;;;;;5095093;28;20051;-62
2023/04/14 00:21:42;;;;;;;10.15;2.80;;;4.40;99.90;;;;;;5095037;28;20048;-62
2023/04/14 00:24:11;;;;;;;8.32;3.00;;;4.40;99.90;;;;;;5077104;28;20047;-62
2023/04/14 00:26:37;;;;;;;10.88;3.05;;;4.40;99.90;;;;;;5076618;28;20064;-62
2023/04/14 00:29:05;;;;;;;8.77;3.90;;;4.40;99.90;;;;;;5095513;28;20442;-62
2023/04/14 00:31:31;;;;;;;5.70;2.80;;;4.30;99.90;;;;;;5095065;28;20465;-61
2023/04/14 00:33:58;;;;;;;8.48;3.10;;;4.50;99.90;;;;;;5076354;28;20052;-61
2023/04/14 00:36:25;;;;;;;8.23;3.33;;;4.30;99.90;;;;;;5077208;28;20056;-62
2023/04/14 00:38:52;;;;;;;12.68;3.75;;;4.20;99.90;;;;;;5077208;28;20078;-61
2023/04/14 00:41:20;;;;;;;9.38;3.78;;;4.20;99.90;;;;;;5076217;28;20050;-61
2023/04/14 00:43:47;;;;;;;10.40;3.10;;;4.20;99.90;;;;;;5095035;28;20453;-62
2023/04/14 00:46:16;;;;;;;9.75;2.75;;;4.10;99.90;;;;;;5076771;28;20564;-62
2023/04/14 00:48:43;;;;;;;12.25;2.92;;;4.10;99.90;;;;;;5094237;28;20044;-61
2023/04/14 00:51:10;;;;;;;9.15;3.17;;;4.00;99.90;;;;;;5076877;28;20044;-62
2023/04/14 00:53:38;;;;;;;11.60;2.90;;;4.00;99.90;;;;;;5076662;28;20074;-61
2023/04/14 00:56:05;;;;;;;8.73;3.03;;;4.00;99.90;;;;;;5094476;28;20047;-62
2023/04/14 00:58:34;;;;;;;7.03;2.50;;;3.90;99.90;;;;;;5094635;28;20055;-62
2023/04/14 01:01:01;;;;;;;6.68;2.83;;;4.10;99.90;;;;;;5076599;28;20043;-62
2023/04/14 01:03:28;;;;;;;8.82;3.28;;;3.90;99.90;;;;;;5058400;28;20060;-60
2023/04/14 01:05:55;;;;;;;7.68;2.78;;;3.90;99.90;;;;;;5073672;28;20056;-61
2023/04/14 01:08:22;;;;;;;8.27;2.67;;;3.10;99.90;;;;;;5074183;28;20036;-60
2023/04/14 01:11:07;;;;;;;9.65;3.00;;;3.90;99.90;;;;;;5073875;28;20041;-61
2023/04/14 01:13:45;;;;;;;10.32;3.63;;;3.90;99.90;;;;;;5054177;28;20055;-61
2023/04/14 01:16:17;;;;;;;6.75;2.70;;;3.90;99.90;;;;;;5072012;28;20403;-63
2023/04/14 01:18:53;;;;;;;11.30;2.97;;;3.80;99.90;;;;;;5071988;28;20048;-61
2023/04/14 01:21:25;;;;;;;9.10;2.85;;;3.80;99.90;;;;;;5054286;28;20067;-62
2023/04/14 01:24:07;;;;;;;10.52;3.17;;;3.70;99.90;;;;;;5073320;28;20045;-60
2023/04/14 01:26:34;;;;;;;8.10;3.08;;;3.70;99.90;;;;;;5056055;28;20048;-61
2023/04/14 01:29:24;;;;;;;6.35;2.40;;;3.70;99.90;;;;;;5074012;28;20044;-62
2023/04/14 01:32:01;;;;;;;10.63;3.17;;;3.70;99.90;;;;;;5055109;28;20040;-62
2023/04/14 01:34:34;;;;;;;9.45;3.10;;;3.80;99.90;;;;;;5055679;28;20044;-61
2023/04/14 01:37:06;;;;;;;6.82;2.28;;;3.60;99.90;;;;;;5073076;28;20134;-60
2023/04/14 01:39:37;;;;;;;8.02;2.88;;;3.60;99.90;;;;;;5056042;28;20407;-61
2023/04/14 01:42:08;;;;;;;9.13;3.15;;;3.60;99.90;;;;;;5071998;28;20040;-62
2023/04/14 01:44:37;;;;;;;7.05;2.78;;;3.60;99.90;;;;;;5072905;28;20095;-61
2023/04/14 01:47:08;;;;;;;7.30;2.53;;;3.60;99.90;;;;;;5073720;28;20463;-61
2023/04/14 01:49:40;;;;;;;6.65;3.00;;;3.60;99.90;;;;;;5055790;28;20052;-62
2023/04/14 01:52:09;;;;;;;6.40;2.28;;;3.60;99.90;;;;;;5053520;28;20052;-61
2023/04/14 01:54:38;;;;;;;5.20;2.75;;;3.60;99.90;;;;;;5071141;28;20114;-61
2023/04/14 01:57:07;;;;;;;4.28;2.40;;;3.70;99.90;;;;;;5073347;28;20132;-62
2023/04/14 01:59:36;;;;;;;7.63;3.10;;;3.60;99.90;;;;;;5072984;28;20049;-61
2023/04/14 02:02:07;;;;;;;7.93;2.47;;;3.70;99.90;;;;;;5078086;28;20058;-61
2023/04/14 02:04:35;;;;;;;7.53;2.58;;;3.60;99.90;;;;;;5093448;28;20044;-62
2023/04/14 02:07:05;;;;;;;7.43;2.83;;;3.70;99.90;;;;;;5075067;28;20097;-61
2023/04/14 02:09:32;;;;;;;8.10;3.20;;;3.70;99.90;;;;;;5075204;28;20449;-61
2023/04/14 02:12:00;;;;;;;8.00;2.60;;;3.70;99.90;;;;;;5092582;28;20047;-61
2023/04/14 02:14:29;;;;;;;8.93;2.55;;;3.70;99.90;;;;;;5091094;28;20054;-61
2023/04/14 02:16:57;;;;;;;9.90;2.53;;;4.40;99.90;;;;;;5093005;28;20056;-63
2023/04/14 02:19:26;;;;;;;7.53;2.45;;;3.70;99.90;;;;;;5074701;28;20117;-61
2023/04/14 02:21:55;;;;;;;6.32;2.13;;;3.70;99.90;;;;;;5090981;28;20044;-61
2023/04/14 02:24:22;;;;;;;6.05;2.38;;;3.70;99.90;;;;;;5092936;28;20048;-62
2023/04/14 02:26:56;;;;;;;10.13;2.92;;;3.70;99.90;;;;;;5092476;28;20048;-62
2023/04/14 02:29:25;;;;;;;10.05;2.83;;;3.80;99.90;;;;;;5091102;28;20047;-62
2023/04/14 02:31:59;;;;;;;6.55;2.47;;;3.90;99.90;;;;;;5074804;28;20067;-63
2023/04/14 02:34:31;;;;;;;9.30;2.97;;;3.80;99.90;;;;;;5074301;28;20052;-62
2023/04/14 02:37:03;;;;;;;6.65;2.55;;;3.80;99.90;;;;;;5074689;28;20048;-61
2023/04/14 02:39:36;;;;;;;10.18;2.83;;;3.90;99.90;;;;;;5092784;28;20044;-62
2023/04/14 02:42:16;;;;;;;5.07;2.65;;;3.90;99.90;;;;;;5074130;28;20044;-61
2023/04/14 02:44:48;;;;;;;11.47;2.60;;;4.00;99.90;;;;;;5073796;28;20059;-62
2023/04/14 02:47:23;;;;;;;7.00;2.63;;;4.10;99.90;;;;;;5092257;28;20054;-62
2023/04/14 02:49:53;;;;;;;6.43;2.42;;;4.10;99.90;;;;;;5073732;28;20453;-62
2023/04/14 02:52:23;;;;;;;6.95;2.00;;;4.20;99.90;;;;;;5072897;28;20044;-62
2023/04/14 02:54:52;;;;;;;6.90;2.58;;;4.20;99.90;;;;;;5074093;28;20103;-60
2023/04/14 02:57:20;;;;;;;9.82;2.28;;;4.20;99.90;;;;;;5074727;28;20105;-61
2023/04/14 02:59:48;;;;;;;5.95;2.55;;;4.20;99.90;;;;;;5090552;28;20093;-62
2023/04/14 03:02:16;;;;;;;9.85;2.50;;;4.20;99.90;;;;;;5091361;28;20522;-61
2023/04/14 03:04:44;;;;;;;8.15;2.30;;;4.20;99.90;;;;;;5092356;28;20048;-62
2023/04/14 03:07:14;;;;;;;6.75;2.58;;;4.20;99.90;;;;;;5074450;28;20071;-63
2023/04/14 03:09:42;;;;;;;8.15;3.10;;;4.10;99.90;;;;;;5073911;28;21388;-62
2023/04/14 03:12:12;;;;;;;7.22;2.63;;;4.10;99.90;;;;;;5092132;28;20044;-62
2023/04/14 03:14:40;;;;;;;6.43;2.60;;;4.10;99.90;;;;;;5072512;28;20062;-62
2023/04/14 03:17:07;;;;;;;6.93;2.50;;;4.00;99.90;;;;;;5073706;28;20556;-62
2023/04/14 03:19:36;;;;;;;13.20;3.08;;;4.00;99.90;;;;;;5092125;28;20056;-62
2023/04/14 03:22:05;;;;;;;6.47;2.80;;;4.00;99.90;;;;;;5074057;28;20051;-62
2023/04/14 03:24:35;;;;;;;6.57;2.30;;;4.00;99.90;;;;;;5073807;28;20080;-61
2023/04/14 03:27:06;;;;;;;4.68;2.60;;;3.90;99.90;;;;;;5089976;28;20048;-62
2023/04/14 03:29:39;;;;;;;7.00;2.53;;;4.00;99.90;;;;;;5091411;28;20040;-62
2023/04/14 03:32:08;;;;;;;9.43;2.60;;;4.00;99.90;;;;;;5073924;28;20083;-62
2023/04/14 03:34:40;;;;;;;7.35;2.95;;;4.00;99.90;;;;;;5091975;28;20055;-63
2023/04/14 03:37:08;;;;;;;7.25;2.63;;;3.90;99.90;;;;;;5071942;28;20445;-61
2023/04/14 03:39:38;;;;;;;9.75;2.75;;;3.90;99.90;;;;;;5074138;28;20044;-61
2023/04/14 03:42:07;;;;;;;6.25;2.22;;;3.90;99.90;;;;;;5073813;28;20456;-62
2023/04/14 03:44:36;;;;;;;9.65;2.97;;;3.80;99.90;;;;;;5091511;28;20052;-61
2023/04/14 03:47:03;;;;;;;8.27;2.40;;;3.70;99.90;;;;;;5092074;28;20094;-61
2023/04/14 03:49:32;;;;;;;6.03;2.65;;;3.70;99.90;;;;;;5073912;28;20048;-62
2023/04/14 03:52:03;;;;;;;9.45;2.90;;;3.70;99.90;;;;;;5091067;28;20474;-61
2023/04/14 03:54:32;;;;;;;13.73;2.75;;;3.70;99.90;;;;;;5065547;28;20055;-62
2023/04/14 03:57:03;;;;;;;7.82;2.67;;;3.70;99.90;;;;;;5069993;28;20829;-62
2023/04/14 03:59:31;;;;;;;9.40;3.03;;;3.70;99.90;;;;;;5068964;28;20044;-62
2023/04/14 04:02:01;;;;;;;9.65;3.05;;;3.60;99.90;;;;;;5087296;28;20337;-62
2023/04/14 04:04:29;;;;;;;7.80;2.80;;;3.60;99.90;;;;;;5088599;28;20106;-61
2023/04/14 04:06:57;;;;;;;7.38;2.72;;;3.60;99.90;;;;;;5071660;28;20058;-61
2023/04/14 04:09:24;;;;;;;5.45;2.70;;;3.60;99.90;;;;;;5088389;28;20044;-63
2023/04/14 04:11:52;;;;;;;4.35;2.63;;;3.50;99.90;;;;;;5087125;28;20048;-62
2023/04/14 04:14:22;;;;;;;12.20;2.60;;;3.50;99.90;;;;;;5087568;28;20044;-61
2023/04/14 04:16:50;;;;;;;9.27;2.88;;;3.50;99.90;;;;;;5071567;28;20078;-62
2023/04/14 04:19:20;;;;;;;6.38;2.97;;;3.40;99.90;;;;;;5072040;28;20052;-61
2023/04/14 04:21:49;;;;;;;8.52;3.28;;;3.50;99.90;;;;;;5068626;28;20050;-61
2023/04/14 04:24:18;;;;;;;5.78;2.85;;;3.80;99.90;;;;;;5070539;28;20044;-63
2023/04/14 04:26:45;;;;;;;6.65;2.92;;;3.50;99.90;;;;;;5070425;28;20052;-62
2023/04/14 04:29:12;;;;;;;8.30;2.90;;;3.60;99.90;;;;;;5069329;28;20139;-63
2023/04/14 04:31:41;;;;;;;10.88;2.80;;;3.70;99.90;;;;;;5087604;28;20118;-62
2023/04/14 04:34:08;;;;;;;6.50;2.50;;;3.70;99.90;;;;;;5071610;28;20051;-62
2023/04/14 04:36:35;;;;;;;6.07;2.53;;;3.70;99.90;;;;;;5069093;28;20056;-61
2023/04/14 04:39:03;;;;;;;7.00;2.33;;;3.70;99.90;;;;;;5087086;28;20549;-62
2023/04/14 04:41:30;;;;;;;8.60;2.58;;;3.70;99.90;;;;;;5085925;28;20053;-62
2023/04/14 04:43:58;;;;;;;9.68;3.13;;;3.70;99.90;;;;;;5073295;28;20480;-62
2023/04/14 04:46:49;;;;;;;8.30;3.15;;;3.70;99.90;;;;;;5088985;28;20128;-61
2023/04/14 04:49:16;;;;;;;;;;;3.70;99.90;;;;;;5075169;28;20056;-62
2023/04/14 04:51:43;;;;;;;4.78;2.67;;;3.70;99.90;;;;;;5074088;28;19920;-63
2023/04/14 04:54:10;;;;;;;5.68;2.20;;;3.70;99.90;;;;;;5082934;28;20052;-62
2023/04/14 04:56:37;;;;;;;8.98;3.08;;;3.70;99.90;;;;;;5074641;28;20488;-62
2023/04/14 04:59:04;;;;;;;7.28;3.38;;;3.80;99.90;;;;;;5087946;28;20929;-61
2023/04/14 05:01:31;;;;;;;6.00;2.55;;;3.90;99.90;;;;;;5074103;28;20048;-61
2023/04/14 05:03:59;;;;;;;8.73;2.50;;;3.90;99.90;;;;;;5091583;28;20044;-61
2023/04/14 05:06:27;;;;;;;7.97;2.30;;;4.00;99.90;;;;;;5068132;28;20044;-61
2023/04/14 05:08:54;;;;;;;9.02;2.47;;;4.00;99.90;;;;;;5072071;28;20389;-61
2023/04/14 05:11:22;;;;;;;8.10;2.45;;;4.10;99.90;;;;;;5073233;28;20089;-61
2023/04/14 05:13:49;;;;;;;6.40;2.50;;;4.10;99.90;;;;;;5091346;28;20121;-61
2023/04/14 05:16:16;;;;;;;9.63;2.70;;;4.20;99.90;;;;;;5086958;28;20403;-62
2023/04/14 05:18:43;;;;;;;6.43;2.22;;;4.20;99.90;;;;;;5069949;28;20056;-61
2023/04/14 05:21:12;;;;;;;8.20;3.53;;;4.20;99.90;;;;;;5074258;28;20048;-61
2023/04/14 05:23:40;;;;;;;6.68;2.38;;;4.30;99.90;;;;;;5070699;28;20050;-62
2023/04/14 05:26:08;;;;;;;7.03;2.60;;;4.30;99.90;;;;;;5067350;28;20058;-61
2023/04/14 05:28:35;;;;;;;6.05;2.70;;;4.40;99.90;;;;;;5088873;28;20056;-61
2023/04/14 05:31:02;;;;;;;8.35;2.50;;;4.70;99.90;;;;;;5071375;28;20392;-61
2023/04/14 05:33:29;;;;;;;8.77;2.47;;;4.50;99.90;;;;;;5093085;28;20052;-62
2023/04/14 05:35:56;;;;;;;10.95;3.10;;;4.60;99.90;;;;;;5089825;28;20067;-61
2023/04/14 05:38:24;;;;;;;4.47;2.53;;;4.70;99.90;;;;;;5093156;28;20044;-61
2023/04/14 05:40:51;;;;;;;5.72;2.53;;;4.80;99.90;;;;;;5073393;28;20052;-62
2023/04/14 05:43:18;;;;;;;8.18;2.75;;;4.90;99.90;;;;;;5072579;28;20086;-63
2023/04/14 05:45:46;;;;;;;7.00;2.67;;;4.90;99.90;;;;;;5092170;28;20410;-62
2023/04/14 05:48:13;;;;;;;7.70;2.70;;;5.00;99.90;;;;;;5092465;28;20093;-61
2023/04/14 05:50:40;;;;;;;7.88;2.78;;;5.10;99.90;;;;;;5090790;28;20052;-61
2023/04/14 05:53:07;;;;;;;12.60;3.63;;;5.10;99.90;;;;;;5091266;28;20093;-62
2023/04/14 05:55:35;;;;;;;8.30;2.88;;;5.30;99.90;;;;;;5075304;28;20056;-61
2023/04/14 05:58:02;;;;;;;7.65;2.35;;;5.30;99.90;;;;;;5090942;28;20047;-61
2023/04/14 06:00:29;;;;;;;7.93;2.60;;;5.40;99.90;;;;;;5073776;28;20052;-62
2023/04/14 06:02:56;;;;;;;9.43;2.22;;;5.50;99.90;;;;;;5091262;28;20133;-62
2023/04/14 06:05:24;;;;;;;9.27;2.92;;;5.70;99.90;;;;;;5074274;28;20048;-61
2023/04/14 06:07:50;;;;;;;7.25;2.60;;;5.80;99.90;;;;;;5072817;28;20488;-62
2023/04/14 06:10:17;;;;;;;5.57;2.20;;;6.10;99.90;;;;;;5092682;28;20492;-60
2023/04/14 06:12:46;;;;;;;6.45;2.38;;;6.30;99.90;;;;;;5072475;28;20055;-61
2023/04/14 06:15:13;;;;;;;8.63;3.05;;;6.60;99.90;;;;;;5074761;28;20059;-62
2023/04/14 06:17:40;;;;;;;8.32;3.00;;;7.00;99.90;;;;;;5090650;28;20055;-62
2023/04/14 06:20:08;;;;;;;10.60;2.85;;;7.40;99.90;;;;;;5090217;28;20043;-61
2023/04/14 06:22:35;;;;;;;4.93;1.95;;;7.90;99.90;;;;;;5073880;28;20483;-62
2023/04/14 06:25:02;;;;;;;7.10;3.22;;;8.50;99.90;;;;;;5092185;28;20511;-62
2023/04/14 06:27:29;;;;;;;5.40;2.33;;;9.20;99.90;;;;;;5090457;28;20052;-61
2023/04/14 06:29:59;;;;;;;5.75;2.40;;;9.80;99.90;;;;;;5092314;28;20123;-61
2023/04/14 06:32:26;;;;;;;8.85;2.47;;;10.60;99.90;;;;;;5086598;28;20563;-62
2023/04/14 06:34:53;;;;;;;5.45;2.17;;;11.30;99.90;;;;;;5082885;28;20093;-62
2023/04/14 06:37:20;;;;;;;6.63;2.55;;;11.90;99.90;;;;;;5091367;28;20090;-62
2023/04/14 06:39:47;;;;;;;5.35;2.22;;;12.50;99.90;;;;;;5091222;28;20154;-62
2023/04/14 06:42:14;;;;;;;5.75;2.00;;;12.80;99.90;;;;;;5073843;28;20105;-62
2023/04/14 06:44:41;;;;;;;7.22;2.10;;;13.30;99.90;;;;;;5092622;28;20552;-62
2023/04/14 06:47:09;;;;;;;8.52;1.83;;;13.60;99.90;;;;;;5083495;28;20052;-62
2023/04/14 06:49:37;;;;;;;8.38;2.38;;;14.10;99.90;;;;;;5073162;28;20071;-62
2023/04/14 06:52:05;;;;;;;7.60;1.88;;;14.50;99.90;;;;;;5074399;28;20050;-62
2023/04/14 06:54:33;;;;;;;9.10;2.53;;;14.80;99.90;;;;;;5073657;28;20164;-62
2023/04/14 06:57:01;;;;;;;8.77;2.35;;;14.90;99.90;;;;;;5092488;28;20076;-62
2023/04/14 06:59:28;;;;;;;7.57;2.28;;;15.30;99.90;;;;;;5092454;28;20119;-61
2023/04/14 07:01:57;;;;;;;6.68;2.15;;;15.60;99.90;;;;;;5090303;28;20063;-61
2023/04/14 07:04:25;;;;;;;7.72;2.20;;;16.10;99.90;;;;;;5091488;28;20446;-62
2023/04/14 07:06:52;;;;;;;8.38;2.10;;;16.30;99.60;;;;;;5090321;28;20048;-61
2023/04/14 07:09:20;;;;;;;7.50;2.13;;;16.70;99.90;;;;;;5073680;28;20389;-62
2023/04/14 07:11:46;;;;;;;6.75;2.38;;;16.90;99.40;;;;;;5074514;28;20051;-62
2023/04/14 07:14:13;;;;;;;8.35;1.95;;;16.80;98.00;;;;;;5074146;28;20128;-62
2023/04/14 07:16:40;;;;;;;8.75;2.25;;;16.90;97.50;;;;;;5091596;28;20044;-63
2023/04/14 07:19:07;;;;;;;6.85;2.25;;;17.10;97.50;;;;;;5074000;28;20051;-62
2023/04/14 07:21:36;;;;;;;3.58;1.80;;;17.30;94.40;;;;;;5091762;28;20062;-62
2023/04/14 07:24:03;;;;;;;7.03;2.20;;;17.60;95.40;;;;;;5073873;28;20131;-61
2023/04/14 07:26:30;;;;;;;4.05;1.65;;;17.90;95.40;;;;;;5091961;28;20425;-61
2023/04/14 07:28:57;;;;;;;9.65;2.40;;;17.80;94.90;;;;;;5091373;28;20131;-63
2023/04/14 07:31:24;;;;;;;7.53;1.65;;;17.90;94.50;;;;;;5092039;28;20484;-62
2023/04/14 07:33:51;;;;;;;8.30;2.10;;;18.10;94.00;;;;;;5089772;28;20040;-62
2023/04/14 07:36:18;;;;;;;4.28;1.80;;;18.20;93.10;;;;;;5090773;28;20101;-61
2023/04/14 07:38:49;;;;;;;5.18;1.88;;;18.50;91.30;;;;;;5091634;28;20492;-63
2023/04/14 07:41:15;;;;;;;6.60;1.98;;;18.80;92.70;;;;;;5073868;28;20058;-62
2023/04/14 07:43:42;;;;;;;8.45;2.67;;;18.80;91.30;;;;;;5073136;28;20097;-61
2023/04/14 07:46:09;;;;;;;5.95;2.10;;;18.80;92.00;;;;;;5074029;28;20056;-63
2023/04/14 07:48:37;;;;;;;9.02;2.10;;;19.10;90.70;;;;;;5073791;28;20051;-62
2023/04/14 07:51:05;;;;;;;9.38;2.25;;;18.90;91.40;;;;;;5089412;28;20040;-62
2023/04/14 07:53:32;;;;;;;4.47;1.60;;;18.90;91.10;;;;;;5091302;28;20102;-62
2023/04/14 07:56:01;;;;;;;7.05;2.47;;;19.10;90.20;;;;;;5091626;28;20048;-62
2023/04/14 07:58:28;;;;;;;3.97;1.58;;;19.50;88.20;;;;;;5091157;28;20458;-61
2023/04/14 08:00:55;;;;;;;6.10;2.00;;;19.50;87.20;;;;;;5091724;28;20040;-63
2023/04/14 08:03:21;;;;;;;7.53;2.10;;;19.60;88.00;;;;;;5072875;28;20048;-62
2023/04/14 08:05:48;;;;;;;4.25;1.73;;;19.70;88.20;;;;;;5091244;28;20052;-62
2023/04/14 08:08:15;;;;;;;8.70;1.77;;;20.20;88.20;;;;;;5091374;28;20047;-62
2023/04/14 08:10:42;;;;;;;5.90;1.95;;;20.30;87.20;;;;;;5073101;28;20438;-62
2023/04/14 08:13:10;;;;;;;4.97;1.73;;;20.50;86.10;;;;;;5089231;28;20052;-63
2023/04/14 08:15:37;;;;;;;7.32;2.00;;;20.00;81.30;;;;;;5095177;28;20094;-62
2023/04/14 08:18:04;;;;;;;4.78;1.50;;;20.30;84.20;;;;;;5076864;28;20052;-63
2023/04/14 08:20:31;;;;;;;7.57;2.10;;;20.10;83.30;;;;;;5095362;28;20044;-62
2023/04/14 08:22:58;;;;;;;6.05;1.83;;;20.50;84.00;;;;;;5095036;28;20392;-63
2023/04/14 08:25:25;;;;;;;8.30;1.80;;;20.60;82.70;;;;;;5094228;28;20495;-62
2023/04/14 08:27:52;;;;;;;10.27;1.80;;;20.60;80.50;;;;;;5077133;28;20472;-63
2023/04/14 08:30:20;;;;;;;6.93;1.90;;;20.90;82.20;;;;;;5076923;28;20051;-63
2023/04/14 08:32:47;;;;;;;5.45;1.80;;;20.90;80.60;;;;;;5094520;28;20047;-61
2023/04/14 08:35:15;;;;;;;5.65;2.10;;;21.10;77.80;;;;;;5077077;28;20052;-62
2023/04/14 08:37:42;;;;;;;6.25;2.45;;;21.10;79.70;;;;;;5076704;28;20044;-63
2023/04/14 08:40:10;;;;;;;7.40;2.03;;;21.30;79.70;;;;;;5092503;28;20043;-62
2023/04/14 08:42:37;;;;;;;5.80;1.92;;;21.40;78.80;;;;;;5094783;28;20139;-64
2023/04/14 08:45:05;;;;;;;5.32;1.90;;;21.70;77.60;;;;;;5076935;28;20044;-61
2023/04/14 08:47:35;;;;;;;5.75;1.75;;;21.90;74.40;;;;;;5094005;28;20040;-63
2023/04/14 08:50:06;;;;;;;12.23;2.75;;;21.70;74.70;;;;;;5074282;28;20048;-62
2023/04/14 08:52:35;;;;;;;11.13;2.30;;;21.70;76.20;;;;;;5093261;28;20044;-62
2023/04/14 08:55:03;;;;;;;5.40;1.85;;;22.00;76.30;;;;;;5092999;28;20040;-62
2023/04/14 08:57:32;;;;;;;6.70;2.35;;;22.20;76.40;;;;;;5074651;28;20097;-62
2023/04/14 08:59:59;;;;;;;6.10;1.95;;;22.10;73.90;;;;;;5091819;28;20487;-61
2023/04/14 09:02:26;;;;;;;7.47;2.13;;;22.50;73.70;;;;;;5076188;28;20798;-62
2023/04/14 09:04:57;;;;;;;5.60;1.75;;;22.20;74.50;;;;;;5093297;28;20127;-62
2023/04/14 09:07:25;;;;;;;6.43;2.25;;;22.30;71.40;;;;;;5094133;28;20052;-62
2023/04/14 09:09:52;;;;;;;5.45;1.73;;;22.00;71.30;;;;;;5094536;28;20044;-63
2023/04/14 09:12:22;;;;;;;5.00;1.98;;;22.10;73.90;;;;;;5076436;28;20048;-62
2023/04/14 09:14:52;;;;;;;8.15;2.22;;;22.70;73.40;;;;;;5093659;28;20098;-62
2023/04/14 09:17:19;;;;;;;7.47;2.10;;;22.80;72.10;;;;;;5076420;28;20074;-63
2023/04/14 09:19:47;;;;;;;7.07;2.15;;;22.90;72.60;;;;;;5094328;28;20043;-62
2023/04/14 09:22:16;;;;;;;4.63;1.58;;;23.10;72.50;;;;;;5065178;28;20500;-63
2023/04/14 09:24:42;;;;;;;5.57;1.95;;;23.70;71.50;;;;;;5069261;28;20048;-64
2023/04/14 09:27:10;;;;;;;8.05;2.45;;;23.50;71.20;;;;;;5072403;28;20496;-62
2023/04/14 09:29:37;;;;;;;9.63;2.20;;;22.90;70.00;;;;;;5074003;28;20083;-64
2023/04/14 09:32:04;;;;;;;6.85;1.92;;;23.60;70.50;;;;;;5090631;28;20052;-63
2023/04/14 09:34:32;;;;;;;6.25;2.00;;;23.80;71.00;;;;;;5072683;28;20094;-64
2023/04/14 09:37:04;;;;;;;5.22;2.05;;;23.50;69.20;;;;;;5090684;28;20050;-64
2023/04/14 09:39:32;;;;;;;8.82;1.92;;;24.20;68.30;;;;;;5091494;28;20090;-64
2023/04/14 09:41:59;;;;;;;7.25;2.17;;;23.90;68.20;;;;;;5089481;28;20047;-63
2023/04/14 09:44:26;;;;;;;5.55;1.77;;;23.90;69.50;;;;;;5071055;28;20036;-62
2023/04/14 09:46:57;;;;;;;7.10;2.10;;;23.50;68.30;;;;;;5072762;28;20044;-63
2023/04/14 09:49:24;;;;;;;5.78;1.83;;;23.50;66.90;;;;;;5091389;28;20135;-63
2023/04/14 09:51:54;;;;;;;8.52;2.00;;;24.10;68.00;;;;;;5074299;28;20055;-64
2023/04/14 09:54:25;;;;;;;8.77;2.15;;;24.40;67.20;;;;;;5088933;28;20076;-63
2023/04/14 09:56:53;;;;;;;7.97;2.30;;;24.40;66.70;;;;;;5091701;28;20123;-63
2023/04/14 09:59:32;;;;;;;8.65;2.10;;;24.50;65.60;;;;;;5088773;28;20051;-63
2023/04/14 10:02:00;;;;;;;8.32;2.20;;;24.60;65.30;;;;;;5091396;28;20132;-64
2023/04/14 10:04:27;;;;;;;6.43;2.08;;;23.40;66.70;;;;;;5072477;28;20495;-63
2023/04/14 10:06:58;;;;;;;6.38;2.25;;;23.50;67.60;;;;;;5073142;28;20047;-63
2023/04/14 10:09:26;;;;;;;5.60;2.17;;;23.40;66.90;;;;;;5085803;28;20051;-63
2023/04/14 10:12:12;;;;;;;6.75;2.45;;;24.10;67.20;;;;;;5074123;28;20407;-63
2023/04/14 10:14:39;;;;;;;9.65;2.65;;;23.90;65.30;;;;;;5087445;28;20398;-64
2023/04/14 10:17:06;;;;;;;6.25;2.38;;;23.90;66.10;;;;;;5093145;28;20097;-63
2023/04/14 10:19:34;;;;;;;5.90;2.10;;;23.30;65.60;;;;;;5090345;28;20414;-63
2023/04/14 10:22:02;;;;;;;10.30;2.72;;;23.70;65.20;;;;;;5074947;28;20055;-62
2023/04/14 10:24:29;;;;;;;7.90;2.17;;;23.00;66.90;;;;;;5071219;28;20119;-64
2023/04/14 10:26:56;;;;;;;7.63;1.80;;;23.60;67.00;;;;;;5073046;28;20453;-63
2023/04/14 10:29:25;;;;;;;8.23;2.20;;;23.80;66.50;;;;;;5092335;28;20048;-63
2023/04/14 10:31:55;;;;;;;6.85;2.28;;;23.60;65.80;;;;;;5073834;28;20109;-63
2023/04/14 10:34:23;;;;;;;;;;;24.00;66.10;;;;;;5092742;28;20454;-63
2023/04/14 10:36:50;;;;;;;9.90;2.85;;;23.70;63.80;;;;;;5074720;28;20364;-64
2023/04/14 10:39:23;;;;;;;8.05;2.70;;;24.10;64.90;;;;;;5092179;28;20051;-64
2023/04/14 10:41:51;;;;;;;6.05;2.22;;;24.60;64.40;;;;;;5092363;28;20089;-63
2023/04/14 10:44:28;;;;;;;8.45;2.00;;;24.50;63.90;;;;;;5091813;28;20143;-63
2023/04/14 10:46:56;;;;;;;6.80;2.58;;;24.60;65.00;;;;;;5090306;28;20043;-63
2023/04/14 10:49:25;;;;;;;8.00;2.22;;;24.40;62.80;;;;;;5092511;28;20044;-63
2023/04/14 10:51:52;;;;;;;6.85;2.00;;;23.70;63.10;;;;;;5074580;28;20048;-63
2023/04/14 10:54:19;;;;;;;7.50;2.20;;;22.90;63.10;;;;;;5091899;28;20044;-65
2023/04/14 10:57:08;;;;;;;5.28;1.73;;;23.50;64.80;;;;;;5092231;28;20040;-63
2023/04/14 10:59:39;;;;;;;6.35;2.05;;;23.60;62.00;;;;;;5067299;28;20052;-64
2023/04/14 11:02:21;;;;;;;5.25;2.30;;;23.70;63.40;;;;;;5092427;28;20052;-62
2023/04/14 11:05:02;;;;;;;5.22;2.40;;;23.60;63.90;;;;;;5091518;28;20495;-64
2023/04/14 11:07:32;;;;;;;5.55;1.77;;;23.40;62.40;;;;;;5091013;28;20082;-63
2023/04/14 11:10:20;;;;;;;7.38;2.05;;;22.90;64.00;;;;;;5085751;28;20560;-63
2023/04/14 11:12:48;;;;;;;6.28;2.10;;;22.70;64.90;;;;;;5085757;28;20054;-62
2023/04/14 11:15:16;;;;;;;8.93;2.45;;;23.40;65.00;;;;;;5068148;28;20044;-63
2023/04/14 11:17:43;;;;;;;7.72;2.05;;;23.10;63.50;;;;;;5086795;28;20080;-64
2023/04/14 11:20:14;;;;;;;7.28;2.28;;;23.70;64.40;;;;;;5087913;28;20434;-63
2023/04/14 11:22:44;;;;;;;5.90;2.38;;;24.40;63.00;;;;;;5087755;28;20043;-63
2023/04/14 11:25:13;;;;;;;4.55;1.90;;;24.50;61.00;;;;;;5088854;28;20040;-62
2023/04/14 11:27:40;;;;;;;6.90;2.28;;;24.10;62.80;;;;;;5071864;28;20055;-63
2023/04/14 11:30:09;;;;;;;7.00;2.05;;;24.00;62.30;;;;;;5088082;28;20051;-63
2023/04/14 11:32:47;;;;;;;7.93;2.17;;;24.40;61.50;;;;;;5088559;28;20048;-63
2023/04/14 11:35:14;;;;;;;9.00;2.08;;;23.90;60.80;;;;;;5068707;28;20059;-63
2023/04/14 11:37:41;;;;;;;5.82;2.33;;;24.20;61.80;;;;;;5070798;28;20052;-62
2023/04/14 11:40:10;;;;;;;5.03;1.77;;;24.00;62.40;;;;;;5071416;28;20105;-63
2023/04/14 11:42:37;;;;;;;5.33;1.93;;;23.30;63.10;;;;;;5070213;28;20385;-63
2023/04/14 11:45:06;;;;;;;6.18;2.00;;;22.30;62.50;;;;;;5073414;28;20306;-62
2023/04/14 11:47:33;;;;;;;5.35;1.73;;;21.50;63.20;;;;;;5091510;28;20083;-62
2023/04/14 11:50:04;;;;;;;6.65;1.80;;;22.10;64.30;;;;;;5076304;28;20047;-63
2023/04/14 11:52:33;;;;;;;5.93;2.35;;;21.80;63.80;;;;;;5095996;28;20048;-62
2023/04/14 11:54:59;;;;;;;5.78;1.88;;;21.70;64.60;;;;;;5077709;28;20089;-62
2023/04/14 11:57:26;;;;;;;4.75;1.77;;;22.60;64.20;;;;;;5095024;28;20044;-63
2023/04/14 11:59:56;;;;;;;5.90;2.40;;;22.50;64.10;;;;;;5095574;28;20086;-63
2023/04/14 12:02:23;;;;;;;5.50;1.65;;;21.90;62.90;;;;;;5093160;28;20109;-64
2023/04/14 12:04:51;;;;;;;7.22;1.90;;;21.10;62.70;;;;;;5094952;28;20051;-62
2023/04/14 12:07:20;;;;;;;5.80;2.25;;;20.30;65.00;;;;;;5077350;28;20048;-63
2023/04/14 12:09:48;;;;;;;9.07;2.15;;;20.90;65.70;;;;;;5094522;28;20063;-62
2023/04/14 12:12:17;;;;;;;4.72;1.60;;;21.60;64.00;;;;;;5094816;28;20075;-63
2023/04/14 12:14:45;;;;;;;5.40;1.70;;;22.50;62.50;;;;;;5075817;28;20097;-64
2023/04/14 12:17:14;;;;;;;7.13;1.90;;;22.90;62.00;;;;;;5076650;28;20474;-64
2023/04/14 12:19:41;;;;;;;6.22;2.15;;;23.50;61.40;;;;;;5077096;28;20051;-63
2023/04/14 12:22:08;;;;;;;8.32;2.10;;;23.50;60.70;;;;;;5077289;28;20081;-62
2023/04/14 12:24:38;;;;;;;4.60;2.20;;;22.90;60.30;;;;;;5094574;28;20047;-63
2023/04/14 12:27:06;;;;;;;6.10;2.15;;;22.10;61.70;;;;;;5075481;28;20060;-63
2023/04/14 12:29:33;;;;;;;4.13;1.92;;;21.40;63.70;;;;;;5093958;28;20074;-62
2023/04/14 12:32:02;;;;;;;10.25;2.75;;;21.10;64.30;;;;;;5092742;28;20044;-63
2023/04/14 12:34:30;;;;;;;7.65;2.45;;;20.70;65.40;;;;;;5077120;28;20047;-62
2023/04/14 12:36:57;;;;;;;8.77;1.73;;;20.10;65.70;;;;;;5094926;28;20388;-62
2023/04/14 12:39:26;;;;;;;5.25;2.05;;;19.60;66.20;;;;;;5091954;28;20052;-62
2023/04/14 12:41:58;;;;;;;5.60;2.20;;;19.40;67.20;;;;;;5095003;28;20055;-63
2023/04/14 12:44:25;;;;;;;8.50;2.45;;;18.70;66.80;;;;;;5076718;28;20491;-62
2023/04/14 12:46:53;;;;;;;6.40;2.53;;;18.40;69.20;;;;;;5073512;28;20069;-63
2023/04/14 12:49:30;;;;;;;10.43;2.50;;;18.00;70.10;;;;;;5075055;28;20135;-62
2023/04/14 12:51:57;;;;;;;5.60;2.13;;;18.20;67.70;;;;;;5094169;28;20465;-62
2023/04/14 12:54:24;;;;;;;6.20;1.90;;;18.20;68.40;;;;;;5075751;28;20048;-63
2023/04/14 12:56:52;;;;;;;6.68;1.98;;;18.60;68.30;;;;;;5094299;28;20072;-62
2023/04/14 12:59:20;;;;;;;5.20;1.83;;;18.50;68.10;;;;;;5093700;28;20043;-63